Gettysburg, SD

16:17 CDT le 24 octobre 2014 (GMT -0500)
Mobridge Municipal | Change Station
CLOSE
Current Station
Aéroport
Location: Mobridge,
Altitude: 1716 ft
Stations météo à proximité

Alt. 1716 ft 45.55 °N, 100.41 °W | Updated 25 minutes ago

Ciel dégagé
Ciel dégagé
74 ° F
Paraît 74 ° F
N
13
Vent Variable Vent de NO

Aujourd'hui
Haut(e) -- | Bas -- ° F
--% Risque de précip.
Hier
Haut(e) -- | Bas -- ° F
Precip. -- pouce
8:07 AM 6:39 PM
Nouvelle lune, 1% visible
Pression 29.90 pouce
Visibilité 10.0 Miles terrestres
Nuages Ciel dégagé
Point de rosée 39 ° F
Humidité 28%
Précipitations 0.00 pouce
Profondeur de la couche neigeuse Non disponible.
UV 2 sur 12
Pollen 1.80 sur 12
Qualité de l'air Non disponible.
Flu Activity Sporadic
METAR KMBG 242052Z AUTO 32011KT 10SM CLR 23/04 A2990 RMK AO2 SLP123 T02330039 55002

More Conditions Fewer Conditions

Pression 29.90 pouce
Visibilité 10.0 Miles terrestres
Nuages Ciel dégagé
Point de rosée 39 ° F
Humidité 28%
Précipitations 0.00 pouce
Profondeur de la couche neigeuse Non disponible.
UV 2 sur 12
Pollen 1.80 sur 12
Qualité de l'air Non disponible.
Flu Activity Sporadic
METAR KMBG 242052Z AUTO 32011KT 10SM CLR 23/04 A2990 RMK AO2 SLP123 T02330039 55002

More Conditions Fewer Conditions

10-Day Weather Forecast

Almanac

Astronomie

Oct. 24, 2014 Lever Coucher
Temps réel 08:07 CDT 18:39 CDT
Crépuscule civil 07:37 CDT 19:10 CDT
Crépuscule nautique 07:03 CDT 19:44 CDT
Crépuscule astronomique 06:29 CDT 20:18 CDT
Lune 08:49 CDT 19:18 CDT
Durée de lumière visible 11h 32m
Longueur du jour
10h 32m
Tomorrow will be 2m 56s shorter.
Nouvelle lune, 1% of the Moon is Illuminated
Aujourd'hui
Nouvelle lune
Oct 30
Premier quartier
Nov 6
Pleine lune
Nov 14
Dernier quartier
Nov 22
Nouveau

Extrêmes aujourd'hui

State Highs State Lows

Community

WunderPhotos

Upload Photos

1,764,659 Photos téléchargées !

WunderBlogs® & News

By Dr. Jeff Masters
Director of Meteorology, Weather Underground
By Kari Strenfel
Meteorologist, Weather Underground
By Christopher C. Burt
Weather Historian, Weather Underground
October 24, 2014
October 24, 2014
October 24, 2014

Nearby

Épaisseur de neige

Station Depth Altitude
North Rapid Creek 0 in 6130 ft

Activité sismique

Ville Distance Mag. Time & Date
No recent earthquake activity has been reported nearby.
Minimum magnitude displayed is 2.5.

Températures des eaux côtières

Lieu Température
Aucun rapport de station

Stations météo à proximité